TimeMST,TemperatureF,Dew PointF,Humidity,Sea Level PressureIn,VisibilityMPH,Wind Direction,Wind SpeedMPH,Gust SpeedMPH,PrecipitationIn,Events,Conditions,WindDirDegrees,DateUTC
12:53 AM,48.0,32.0,54,29.81,10.0,West,12.7,-,N/A,,Clear,280,2012-12-06 07:53:00
1:53 AM,46.0,32.0,58,29.84,10.0,NW,8.1,-,N/A,,Scattered Clouds,310,2012-12-06 08:53:00
2:53 AM,46.0,34.0,63,29.89,10.0,North,18.4,23.0,0.00,Rain,Light Rain,360,2012-12-06 09:53:00
3:53 AM,39.9,33.1,77,29.92,10.0,NNE,12.7,26.5,0.00,,Overcast,30,2012-12-06 10:53:00
4:53 AM,37.0,32.0,82,29.97,10.0,NNE,6.9,-,N/A,,Mostly Cloudy,20,2012-12-06 11:53:00
5:53 AM,36.0,28.9,76,30.01,10.0,NNE,11.5,-,N/A,,Overcast,20,2012-12-06 12:53:00
6:53 AM,33.1,28.0,82,30.04,10.0,ENE,10.4,-,N/A,,Overcast,60,2012-12-06 13:53:00
7:29 AM,33.8,30.2,87,30.05,5.0,East,4.6,-,0.00,Snow,Light Snow,80,2012-12-06 14:29:00
7:53 AM,32.0,30.0,92,30.06,4.0,East,8.1,-,0.00,Snow,Light Snow,100,2012-12-06 14:53:00
8:46 AM,32.0,30.2,93,30.06,10.0,ESE,8.1,-,0.00,,Overcast,120,2012-12-06 15:46:00
8:53 AM,33.1,30.9,92,30.06,10.0,East,6.9,-,0.00,,Overcast,100,2012-12-06 15:53:00
9:53 AM,34.0,30.0,85,30.06,10.0,East,6.9,-,N/A,,Overcast,90,2012-12-06 16:53:00
10:03 AM,35.6,30.2,81,30.06,10.0,ESE,8.1,-,N/A,,Overcast,120,2012-12-06 17:03:00
10:26 AM,35.6,28.4,75,30.05,10.0,ESE,9.2,-,N/A,,Overcast,120,2012-12-06 17:26:00
10:53 AM,37.9,28.9,70,30.02,10.0,SE,8.1,-,N/A,,Mostly Cloudy,130,2012-12-06 17:53:00
11:53 AM,39.9,27.0,60,29.98,10.0,SSE,13.8,17.3,N/A,,Clear,150,2012-12-06 18:53:00
12:53 PM,42.1,26.1,53,29.96,10.0,SSE,13.8,19.6,N/A,,Clear,150,2012-12-06 19:53:00
1:53 PM,44.1,26.1,49,29.92,10.0,SE,11.5,-,N/A,,Clear,130,2012-12-06 20:53:00
2:53 PM,43.0,26.1,51,29.89,10.0,SE,12.7,-,N/A,,Clear,130,2012-12-06 21:53:00
3:53 PM,41.0,26.1,55,29.89,10.0,ESE,11.5,-,N/A,,Clear,110,2012-12-06 22:53:00
4:53 PM,37.0,25.0,62,29.91,10.0,ESE,13.8,-,N/A,,Clear,110,2012-12-06 23:53:00
5:53 PM,34.0,24.1,67,29.92,10.0,ESE,13.8,-,N/A,,Clear,120,2012-12-07 00:53:00
6:53 PM,33.1,23.0,66,29.92,10.0,ESE,15.0,-,N/A,,Partly Cloudy,120,2012-12-07 01:53:00
7:53 PM,32.0,21.9,66,29.93,10.0,ESE,10.4,-,N/A,,Clear,110,2012-12-07 02:53:00
8:53 PM,32.0,23.0,69,29.91,10.0,East,9.2,-,N/A,,Clear,100,2012-12-07 03:53:00
9:53 PM,30.9,23.0,72,29.91,10.0,SE,6.9,-,N/A,,Clear,130,2012-12-07 04:53:00
10:53 PM,33.1,23.0,66,29.86,10.0,East,8.1,-,N/A,,Clear,80,2012-12-07 05:53:00
11:53 PM,35.1,21.9,59,29.83,10.0,ESE,6.9,-,N/A,,Clear,120,2012-12-07 06:53:00